Time;durP1;ratioP1;P1;durP2;ratioP2;P2;SDS_P1;SDS_P2;PMS_P1;PMS_P2;Temp;Humidity;BMP_temperature;BMP_pressure;BME280_temperature;BME280_humidity;BME280_pressure;Samples;Min_cycle;Max_cycle;Signal;HPM_P1;HPM_P2
2023/02/10 00:01:43;;;;;;;138.80;50.00;;;;;;;-10.65;59.96;103463.17;107652;1255;98421;-61
2023/02/10 00:04:13;;;;;;;126.30;49.90;;;;;;;-10.64;59.53;103458.67;107642;1254;111935;-63
2023/02/10 00:06:41;;;;;;;117.30;48.10;;;;;;;-10.62;59.54;103453.39;107592;1253;109032;-62
2023/02/10 00:09:13;;;;;;;120.10;51.60;;;;;;;-10.62;59.80;103455.30;107562;1254;107954;-62
2023/02/10 00:11:57;;;;;;;109.30;46.00;;;;;;;-10.62;59.71;103453.21;107627;1254;97717;-62
2023/02/10 00:14:28;;;;;;;119.30;50.60;;;;;;;-10.63;59.39;103454.41;107589;1254;97775;-61
2023/02/10 00:16:57;;;;;;;116.00;47.90;;;;;;;-10.62;59.50;103455.50;107448;1254;110750;-61
2023/02/10 00:19:26;;;;;;;125.20;51.50;;;;;;;-10.61;59.50;103452.56;107474;1254;110050;-61
2023/02/10 00:21:55;;;;;;;132.60;54.60;;;;;;;-10.61;59.74;103445.64;107624;1255;107275;-61
2023/02/10 00:24:24;;;;;;;132.60;55.00;;;;;;;-10.58;59.72;103446.11;107392;1253;97929;-62
2023/02/10 00:26:52;;;;;;;129.90;52.40;;;;;;;-10.58;59.69;103447.88;107676;1252;97845;-62
2023/02/10 00:29:21;;;;;;;129.90;52.40;;;;;;;-10.60;59.80;103442.02;107649;1251;111907;-60
2023/02/10 00:31:49;;;;;;;128.10;53.50;;;;;;;-10.61;60.04;103439.20;107630;1254;110004;-62
2023/02/10 00:34:18;;;;;;;119.90;49.30;;;;;;;-10.61;59.83;103438.15;107566;1253;107305;-63
2023/02/10 00:36:50;;;;;;;111.00;45.90;;;;;;;-10.62;60.05;103436.23;107546;1252;97974;-62
2023/02/10 00:39:19;;;;;;;120.70;48.30;;;;;;;-10.63;59.91;103428.91;107603;1252;97914;-62
2023/02/10 00:41:47;;;;;;;112.20;46.50;;;;;;;-10.73;59.35;103426.04;107573;1254;112316;-62
2023/02/10 00:44:15;;;;;;;138.90;51.30;;;;;;;-10.86;59.56;103425.66;107593;1254;109850;-62
2023/02/10 00:46:43;;;;;;;135.90;54.40;;;;;;;-10.92;59.77;103418.16;107638;1254;108645;-61
2023/02/10 00:49:12;;;;;;;141.50;54.30;;;;;;;-10.93;59.87;103412.55;107569;1256;97880;-61
2023/02/10 00:51:41;;;;;;;131.10;54.90;;;;;;;-10.92;60.34;103410.16;107607;1252;98440;-61
2023/02/10 00:54:12;;;;;;;132.40;55.40;;;;;;;-10.89;60.32;103410.64;107577;1254;114212;-60
2023/02/10 00:56:41;;;;;;;127.90;55.20;;;;;;;-10.88;60.25;103405.81;107589;1253;109806;-61
2023/02/10 00:59:12;;;;;;;125.00;53.50;;;;;;;-10.88;60.17;103409.30;107660;1254;108779;-60
2023/02/10 01:01:41;;;;;;;132.80;58.10;;;;;;;-10.86;60.45;103404.37;107386;1252;97725;-60
2023/02/10 01:04:10;;;;;;;131.10;54.90;;;;;;;-10.85;60.38;103401.81;107669;1254;97796;-61
2023/02/10 01:06:38;;;;;;;137.60;56.50;;;;;;;-10.90;60.11;103400.92;107633;1252;110029;-61
2023/02/10 01:09:07;;;;;;;144.60;57.60;;;;;;;-10.93;60.08;103398.14;107597;1253;109278;-61
2023/02/10 01:11:36;;;;;;;144.30;60.80;;;;;;;-10.97;60.25;103390.73;107614;1253;108255;-61
2023/02/10 01:14:05;;;;;;;149.20;59.60;;;;;;;-10.98;60.19;103395.52;107470;1253;97848;-60
2023/02/10 01:16:33;;;;;;;150.30;61.00;;;;;;;-10.99;60.22;103386.45;107589;1254;97818;-60
2023/02/10 01:19:01;;;;;;;155.30;60.30;;;;;;;-11.03;60.39;103382.68;107627;1254;111832;-60
2023/02/10 01:21:32;;;;;;;147.40;58.20;;;;;;;-11.03;60.16;103384.23;107598;1254;109684;-60
2023/02/10 01:24:01;;;;;;;151.70;59.70;;;;;;;-11.03;59.92;103384.24;107615;1256;108715;-60
2023/02/10 01:26:33;;;;;;;150.60;59.40;;;;;;;-11.04;60.12;103382.30;107622;1253;97800;-60
2023/02/10 01:29:01;;;;;;;139.10;57.60;;;;;;;-11.05;59.98;103376.33;107677;1253;97821;-61
2023/02/10 01:31:29;;;;;;;156.40;61.10;;;;;;;-11.06;59.88;103372.81;107637;1253;112639;-61
2023/02/10 01:33:58;;;;;;;144.20;59.70;;;;;;;-11.08;59.74;103367.02;107706;1251;109260;-61
2023/02/10 01:36:27;;;;;;;168.10;63.00;;;;;;;-11.10;60.00;103365.77;107619;1251;108359;-62
2023/02/10 01:38:57;;;;;;;151.30;60.80;;;;;;;-11.11;60.09;103365.85;107626;1254;97844;-61
2023/02/10 01:41:26;;;;;;;160.20;61.30;;;;;;;-11.12;60.01;103367.87;107611;1252;98414;-60
2023/02/10 01:44:21;;;;;;;141.30;60.80;;;;;;;-11.13;60.06;103367.17;107621;1253;111740;-63
2023/02/10 01:46:49;;;;;;;157.60;62.10;;;;;;;-11.19;60.00;103369.88;107637;1253;111034;-60
2023/02/10 01:49:21;;;;;;;166.50;62.80;;;;;;;-11.25;60.08;103375.29;107675;1253;107576;-62
2023/02/10 01:51:59;;;;;;;139.90;54.40;;;;;;;-11.31;59.88;103374.36;107661;1251;97931;-61
2023/02/10 01:54:34;;;;;;;142.40;54.80;;;;;;;-11.38;60.14;103368.34;107685;1252;98420;-61
2023/02/10 01:57:02;;;;;;;148.20;58.40;;;;;;;-11.38;60.20;103369.52;107714;1251;111838;-61
2023/02/10 01:59:35;;;;;;;130.50;58.40;;;;;;;-11.38;60.31;103367.45;107550;1254;108763;-61
2023/02/10 02:02:06;;;;;;;;;;;;;;;-11.36;60.43;103364.97;107607;1252;106697;-61
2023/02/10 02:04:52;;;;;;;156.20;53.80;;;;;;;-11.34;60.46;103357.59;107639;1254;97721;-60
2023/02/10 02:07:25;;;;;;;138.80;53.90;;;;;;;-11.34;60.44;103360.02;107587;1254;97829;-60
2023/02/10 02:09:55;;;;;;;143.20;54.20;;;;;;;-11.35;60.37;103356.88;107646;1254;111233;-60
2023/02/10 02:12:24;;;;;;;145.80;56.40;;;;;;;-11.37;60.47;103353.98;107645;1251;111016;-61
2023/02/10 02:15:02;;;;;;;136.00;54.30;;;;;;;-11.40;60.39;103355.75;107610;1251;107583;-62
2023/02/10 02:17:41;;;;;;;112.90;48.80;;;;;;;-11.41;60.35;103353.80;107611;1253;98307;-60
2023/02/10 02:20:40;;;;;;;101.50;43.20;;;;;;;-11.41;60.09;103351.38;107531;1254;98540;-61
2023/02/10 02:23:19;;;;;;;89.90;38.10;;;;;;;-11.46;60.03;103352.75;107627;1251;111604;-63
2023/02/10 02:26:42;;;;;;;99.60;39.00;;;;;;;-11.52;59.76;103349.71;107578;1254;110104;-62
2023/02/10 02:29:16;;;;;;;109.00;46.60;;;;;;;-11.58;59.56;103352.73;106934;1259;107621;-61
2023/02/10 02:31:51;;;;;;;113.00;44.70;;;;;;;-11.60;60.05;103350.01;107509;1254;97836;-60
2023/02/10 02:34:39;;;;;;;113.30;45.10;;;;;;;-11.60;59.77;103349.84;107577;1254;97699;-61
2023/02/10 02:37:33;;;;;;;109.60;48.40;;;;;;;-11.62;60.02;103350.64;107637;1254;112663;-60
2023/02/10 02:40:02;;;;;;;118.60;49.10;;;;;;;-11.62;59.83;103353.39;107609;1254;110117;-60
2023/02/10 02:42:32;;;;;;;112.50;47.90;;;;;;;-11.61;60.11;103347.55;107629;1252;107836;-62
2023/02/10 02:45:07;;;;;;;117.10;49.90;;;;;;;-11.65;59.74;103344.80;107618;1254;97836;-63
2023/02/10 02:47:54;;;;;;;110.40;46.00;;;;;;;-11.68;59.98;103345.70;107595;1254;97703;-60
2023/02/10 02:50:25;;;;;;;125.80;51.00;;;;;;;-11.72;60.12;103343.27;107613;1251;112370;-62
2023/02/10 02:53:03;;;;;;;117.10;47.50;;;;;;;-11.73;60.14;103345.11;107646;1254;108955;-61
2023/02/10 02:55:53;;;;;;;115.10;45.90;;;;;;;-11.73;60.25;103343.23;107566;1252;107633;-61
2023/02/10 02:58:53;;;;;;;119.70;48.20;;;;;;;-11.72;60.28;103343.77;107628;1253;97845;-60
2023/02/10 03:01:59;;;;;;;119.70;50.60;;;;;;;-11.70;60.57;103339.75;107610;1254;98379;-60
2023/02/10 03:04:31;;;;;;;131.00;50.00;;;;;;;-11.64;60.90;103336.54;107538;1253;111545;-61
2023/02/10 03:07:02;;;;;;;97.80;39.90;;;;;;;-11.60;60.77;103330.98;107654;1255;110018;-59
2023/02/10 03:09:31;;;;;;;114.60;47.50;;;;;;;-11.56;60.85;103334.95;107625;1253;107506;-60
2023/02/10 03:11:59;;;;;;;121.90;47.50;;;;;;;-11.52;60.69;103328.91;107613;1253;97909;-61
2023/02/10 03:14:27;;;;;;;91.00;36.30;;;;;;;-11.55;60.78;103330.86;107669;1254;97872;-60
2023/02/10 03:16:56;;;;;;;84.10;34.30;;;;;;;-11.59;60.66;103333.61;107616;1253;111247;-60
2023/02/10 03:19:25;;;;;;;82.30;36.70;;;;;;;-11.62;60.60;103332.82;107612;1254;108689;-60
2023/02/10 03:21:53;;;;;;;84.00;33.60;;;;;;;-11.66;60.80;103335.91;107593;1253;107627;-60
2023/02/10 03:24:22;;;;;;;77.00;31.30;;;;;;;-11.75;60.91;103331.18;107615;1253;97906;-61
2023/02/10 03:26:50;;;;;;;87.30;35.30;;;;;;;-11.79;60.73;103327.55;107620;1256;98389;-62
2023/02/10 03:29:18;;;;;;;85.50;33.20;;;;;;;-11.75;60.76;103325.98;107619;1253;112058;-60
2023/02/10 03:31:47;;;;;;;86.30;36.90;;;;;;;-11.72;61.10;103323.38;107506;1253;109643;-61
2023/02/10 03:34:16;;;;;;;90.40;35.10;;;;;;;-11.68;60.92;103318.88;107579;1254;109236;-61
2023/02/10 03:36:44;;;;;;;94.00;38.00;;;;;;;-11.67;60.80;103320.98;107600;1253;97815;-60
2023/02/10 03:39:12;;;;;;;83.10;35.90;;;;;;;-11.67;60.62;103321.88;107589;1254;97916;-62
2023/02/10 03:41:41;;;;;;;101.60;36.60;;;;;;;-11.65;60.73;103321.42;107607;1253;112583;-60
2023/02/10 03:44:09;;;;;;;98.10;35.30;;;;;;;-11.65;60.71;103315.52;107583;1253;109241;-61
2023/02/10 03:46:37;;;;;;;86.60;37.00;;;;;;;-11.69;60.78;103313.46;107604;1253;107848;-59
2023/02/10 03:49:06;;;;;;;81.40;35.60;;;;;;;-11.71;60.77;103307.66;107616;1253;98037;-62
2023/02/10 03:51:34;;;;;;;88.80;37.40;;;;;;;-11.75;60.69;103302.83;107649;1253;97941;-60
2023/02/10 03:54:03;;;;;;;92.70;37.90;;;;;;;-11.77;60.74;103301.17;107626;1252;111325;-60
2023/02/10 03:56:31;;;;;;;99.80;35.30;;;;;;;-11.76;60.82;103300.34;107651;1254;109324;-61
2023/02/10 03:59:01;;;;;;;77.50;34.80;;;;;;;-11.73;60.92;103307.02;107610;1251;107911;-61
2023/02/10 04:01:30;;;;;;;70.50;29.20;;;;;;;-11.72;60.65;103312.45;107592;1252;97925;-61
2023/02/10 04:04:00;;;;;;;86.40;32.00;;;;;;;-11.75;60.71;103310.60;107562;1253;97846;-62
2023/02/10 04:06:28;;;;;;;79.70;29.80;;;;;;;-11.77;60.67;103313.27;107677;1253;111265;-61
2023/02/10 04:08:56;;;;;;;103.80;33.80;;;;;;;-11.82;60.50;103310.27;107627;1252;109515;-62
2023/02/10 04:11:26;;;;;;;107.30;33.30;;;;;;;-11.84;60.65;103312.63;107598;1251;107716;-61
2023/02/10 04:13:55;;;;;;;92.60;32.10;;;;;;;-11.84;60.51;103315.71;107559;1254;97710;-62
2023/02/10 04:16:27;;;;;;;77.90;30.10;;;;;;;-11.85;60.71;103313.28;107446;1251;97729;-61
2023/02/10 04:18:55;;;;;;;69.50;28.70;;;;;;;-11.86;60.69;103311.16;107629;1251;111382;-62
2023/02/10 04:21:24;;;;;;;73.30;31.40;;;;;;;-11.89;60.96;103316.73;107629;1251;109934;-60
2023/02/10 04:23:53;;;;;;;89.30;35.80;;;;;;;-11.90;61.21;103314.25;107627;1252;107729;-62
2023/02/10 04:26:22;;;;;;;102.40;40.10;;;;;;;-11.90;61.25;103317.38;107609;1251;97861;-62
2023/02/10 04:28:51;;;;;;;96.60;36.10;;;;;;;-11.87;61.26;103320.77;107583;1254;97797;-61
2023/02/10 04:31:20;;;;;;;89.10;36.80;;;;;;;-11.85;61.14;103324.02;107591;1251;111928;-60
2023/02/10 04:33:48;;;;;;;101.30;40.50;;;;;;;-11.84;61.31;103321.29;107576;1253;107176;-61
2023/02/10 04:36:16;;;;;;;83.90;34.70;;;;;;;-11.83;61.09;103322.00;107605;1254;108507;-61
2023/02/10 04:38:44;;;;;;;81.40;33.30;;;;;;;-11.79;61.24;103320.98;107617;1251;97838;-62
2023/02/10 04:41:13;;;;;;;73.60;31.70;;;;;;;-11.77;61.06;103325.39;107527;1255;98463;-63
2023/02/10 04:43:41;;;;;;;71.10;28.10;;;;;;;-11.76;61.17;103323.89;107578;1251;111645;-62
2023/02/10 04:46:10;;;;;;;85.60;33.60;;;;;;;-11.74;60.96;103323.80;107600;1251;110140;-61
2023/02/10 04:48:40;;;;;;;85.20;30.80;;;;;;;-11.73;60.92;103326.77;107593;1252;107625;-61
2023/02/10 04:51:11;;;;;;;68.40;28.10;;;;;;;-11.73;60.96;103324.02;107634;1252;97698;-62
2023/02/10 04:53:40;;;;;;;97.10;33.10;;;;;;;-11.76;60.75;103323.54;107560;1254;98914;-61
2023/02/10 04:56:09;;;;;;;66.60;29.40;;;;;;;-11.78;61.05;103326.02;107608;1253;111982;-62
2023/02/10 04:58:38;;;;;;;68.00;30.30;;;;;;;-11.78;60.84;103328.98;107616;1254;109145;-62
2023/02/10 05:01:06;;;;;;;76.00;30.60;;;;;;;-11.76;61.19;103325.59;107589;1251;108299;-61
2023/02/10 05:03:35;;;;;;;70.60;28.40;;;;;;;-11.76;60.96;103328.20;107573;1253;97905;-61
2023/02/10 05:06:12;;;;;;;82.30;31.10;;;;;;;-11.77;61.11;103326.92;107611;1256;97895;-61
2023/02/10 05:08:41;;;;;;;67.70;26.70;;;;;;;-11.77;60.84;103330.91;107531;1252;111514;-61
2023/02/10 05:11:13;;;;;;;64.70;25.90;;;;;;;-11.76;60.91;103333.23;107559;1254;109527;-61
2023/02/10 05:13:42;;;;;;;68.90;27.40;;;;;;;-11.76;60.83;103331.48;107635;1253;109440;-60
2023/02/10 05:16:13;;;;;;;72.30;30.70;;;;;;;-11.75;61.09;103326.54;107633;1253;97854;-61
2023/02/10 05:18:42;;;;;;;64.50;27.80;;;;;;;-11.76;60.88;103320.27;107658;1256;97911;-61
2023/02/10 05:21:12;;;;;;;67.30;29.20;;;;;;;-11.77;60.86;103319.66;107623;1253;112379;-61
2023/02/10 05:23:41;;;;;;;86.40;33.90;;;;;;;-11.78;61.06;103324.48;107678;1251;108952;-61
2023/02/10 05:26:09;;;;;;;69.20;27.70;;;;;;;-11.80;60.64;103321.99;107599;1254;108058;-62
2023/02/10 05:28:38;;;;;;;72.00;28.50;;;;;;;-11.80;60.45;103328.04;107563;1251;97840;-61
2023/02/10 05:31:08;;;;;;;68.30;27.30;;;;;;;-11.81;60.47;103332.31;107576;1251;98339;-60
2023/02/10 05:33:36;;;;;;;73.30;30.00;;;;;;;-11.82;60.42;103334.00;107598;1251;112041;-63
2023/02/10 05:36:05;;;;;;;77.70;31.20;;;;;;;-11.84;60.55;103329.41;107535;1254;109241;-62
2023/02/10 05:38:33;;;;;;;67.00;28.20;;;;;;;-11.86;60.55;103330.33;107622;1252;107965;-60
2023/02/10 05:41:02;;;;;;;64.90;28.90;;;;;;;-11.87;60.45;103331.38;107575;1253;97857;-60
2023/02/10 05:43:30;;;;;;;66.60;28.80;;;;;;;-11.88;60.61;103330.10;107616;1254;98187;-61
2023/02/10 05:45:59;;;;;;;68.10;29.20;;;;;;;-11.87;60.47;103332.90;107593;1253;111668;-61
2023/02/10 05:48:27;;;;;;;74.20;30.90;;;;;;;-11.88;60.48;103332.00;107642;1253;110157;-62
2023/02/10 05:50:56;;;;;;;64.50;27.80;;;;;;;-11.88;60.29;103336.17;107539;1253;108295;-62
2023/02/10 05:53:25;;;;;;;79.70;29.70;;;;;;;-11.88;60.76;103336.30;107563;1254;97835;-63
2023/02/10 05:55:53;;;;;;;65.30;29.10;;;;;;;-11.87;60.49;103335.33;107560;1254;97921;-63
2023/02/10 05:58:22;;;;;;;76.90;28.60;;;;;;;-11.86;60.36;103331.88;107623;1254;112273;-61
2023/02/10 06:00:50;;;;;;;105.80;39.60;;;;;;;-11.88;60.18;103334.77;107635;1251;108205;-62
2023/02/10 06:03:19;;;;;;;119.40;38.40;;;;;;;-11.88;60.59;103337.88;107574;1254;107994;-62
2023/02/10 06:05:47;;;;;;;110.90;39.50;;;;;;;-11.87;60.15;103340.52;107570;1251;97810;-60
2023/02/10 06:08:16;;;;;;;91.00;35.40;;;;;;;-11.84;60.21;103334.41;107656;1251;97763;-62
2023/02/10 06:10:45;;;;;;;75.70;30.80;;;;;;;-11.80;60.39;103335.48;107572;1253;112189;-61
2023/02/10 06:13:13;;;;;;;76.00;30.80;;;;;;;-11.72;60.49;103330.98;107579;1253;110295;-64
2023/02/10 06:15:41;;;;;;;83.10;32.60;;;;;;;-11.65;60.28;103331.48;107590;1256;107656;-62
2023/02/10 06:18:10;;;;;;;86.10;35.20;;;;;;;-11.57;60.76;103326.27;107622;1256;97857;-61
2023/02/10 06:20:38;;;;;;;68.70;30.10;;;;;;;-11.52;60.63;103328.41;107665;1254;97848;-60
2023/02/10 06:23:06;;;;;;;69.50;32.00;;;;;;;-11.50;60.52;103324.49;107653;1254;112259;-62
2023/02/10 06:25:36;;;;;;;78.90;32.20;;;;;;;-11.47;60.34;103323.77;107585;1256;109763;-61
2023/02/10 06:28:05;;;;;;;77.60;31.40;;;;;;;-11.40;60.63;103322.33;107622;1254;107868;-62
2023/02/10 06:30:34;;;;;;;79.00;33.00;;;;;;;-11.32;60.66;103325.63;107549;1254;97836;-62
2023/02/10 06:33:03;;;;;;;75.20;34.90;;;;;;;-11.23;60.83;103326.19;107558;1253;97996;-61
2023/02/10 06:35:31;;;;;;;77.60;34.90;;;;;;;-11.14;61.03;103323.95;107573;1252;111886;-60
2023/02/10 06:38:00;;;;;;;70.00;32.80;;;;;;;-11.07;61.06;103326.33;107652;1255;109671;-62
2023/02/10 06:40:28;;;;;;;79.80;32.30;;;;;;;-10.99;60.98;103326.31;107555;1254;108157;-62
2023/02/10 06:42:57;;;;;;;74.50;32.40;;;;;;;-10.89;61.31;103326.72;107589;1253;97873;-61
2023/02/10 06:45:25;;;;;;;86.30;33.80;;;;;;;-10.83;61.43;103327.17;107631;1255;97837;-62
2023/02/10 06:47:53;;;;;;;74.10;33.90;;;;;;;-10.73;61.60;103326.87;107665;1251;112135;-61
2023/02/10 06:50:22;;;;;;;73.60;34.70;;;;;;;-10.61;61.83;103327.00;107546;1256;110050;-61
2023/02/10 06:52:50;;;;;;;71.40;33.70;;;;;;;-10.50;61.99;103315.66;107522;1254;107724;-61
2023/02/10 06:55:19;;;;;;;77.10;35.70;;;;;;;-10.38;61.87;103313.16;107601;1253;97851;-60
2023/02/10 06:57:47;;;;;;;68.90;32.90;;;;;;;-10.26;62.13;103306.50;107607;1254;97724;-60
2023/02/10 07:00:16;;;;;;;85.10;36.40;;;;;;;-10.13;62.34;103304.73;107621;1254;111274;-62
2023/02/10 07:02:44;;;;;;;73.70;36.20;;;;;;;-10.00;62.53;103306.44;107572;1253;108971;-61
2023/02/10 07:05:16;;;;;;;72.30;37.10;;;;;;;-9.85;62.44;103305.75;107560;1256;108402;-62
2023/02/10 07:07:44;;;;;;;83.80;36.90;;;;;;;-9.70;62.97;103301.60;107552;1255;97929;-61
2023/02/10 07:10:13;;;;;;;79.90;37.30;;;;;;;-9.53;62.82;103301.70;107590;1252;97830;-61
2023/02/10 07:12:41;;;;;;;78.60;37.80;;;;;;;-9.35;62.97;103299.91;107639;1254;112713;-61
2023/02/10 07:15:09;;;;;;;80.20;37.60;;;;;;;-9.20;62.73;103299.02;107569;1253;108937;-61
2023/02/10 07:17:38;;;;;;;74.80;35.10;;;;;;;-9.12;62.74;103301.20;107641;1255;108812;-60
2023/02/10 07:20:06;;;;;;;79.30;37.30;;;;;;;-9.03;63.07;103295.42;107639;1255;97943;-61
2023/02/10 07:22:34;;;;;;;77.10;32.70;;;;;;;-8.94;62.91;103292.06;107610;1254;98343;-59
2023/02/10 07:25:03;;;;;;;73.00;32.20;;;;;;;-8.78;63.04;103286.83;107651;1254;111869;-63
2023/02/10 07:27:32;;;;;;;77.30;31.70;;;;;;;-8.63;63.29;103280.70;107582;1254;108729;-61
2023/02/10 07:30:00;;;;;;;64.60;32.10;;;;;;;-8.50;63.17;103279.52;107408;1255;109382;-63
2023/02/10 07:32:29;;;;;;;79.60;35.20;;;;;;;-8.35;63.23;103278.22;107592;1253;97698;-61
2023/02/10 07:34:57;;;;;;;75.00;33.30;;;;;;;-8.23;63.48;103275.98;107594;1253;98370;-61
2023/02/10 07:37:26;;;;;;;70.70;32.90;;;;;;;-8.12;63.59;103276.84;107573;1252;111322;-62
2023/02/10 07:39:54;;;;;;;73.80;33.50;;;;;;;-7.99;63.68;103281.73;107583;1254;110035;-61
2023/02/10 07:42:23;;;;;;;83.90;36.20;;;;;;;-7.84;63.80;103280.40;107614;1253;107329;-62
2023/02/10 07:45:17;;;;;;;87.00;37.30;;;;;;;-7.68;63.78;103281.90;107538;1253;97914;-61
2023/02/10 07:47:46;;;;;;;77.40;35.20;;;;;;;-7.56;63.75;103284.31;107587;1254;97921;-61
2023/02/10 07:50:14;;;;;;;76.80;37.30;;;;;;;-7.45;63.72;103283.55;107509;1253;110653;-64
2023/02/10 07:52:43;;;;;;;75.80;32.70;;;;;;;-7.42;63.72;103279.98;107551;1253;109724;-62
2023/02/10 07:55:12;;;;;;;90.60;36.30;;;;;;;-7.41;63.31;103284.04;107513;1256;107634;-62
2023/02/10 07:57:41;;;;;;;74.80;33.50;;;;;;;-7.40;63.08;103280.23;107496;1254;97838;-63
2023/02/10 08:00:12;;;;;;;94.20;32.80;;;;;;;-7.39;62.88;103281.48;107543;1254;98469;-64
2023/02/10 08:02:40;;;;;;;74.00;30.70;;;;;;;-7.32;63.05;103279.04;107597;1254;111690;-62
2023/02/10 08:05:09;;;;;;;59.70;27.40;;;;;;;-7.21;62.96;103279.32;107595;1253;108650;-62
2023/02/10 08:07:37;;;;;;;65.90;29.70;;;;;;;-7.11;62.94;103278.00;107562;1256;107141;-63
2023/02/10 08:10:07;;;;;;;65.20;28.70;;;;;;;-7.00;62.87;103269.57;107631;1256;98474;-62
2023/02/10 08:12:35;;;;;;;72.60;29.90;;;;;;;-6.89;62.69;103270.70;107656;1252;98357;-62
2023/02/10 08:15:05;;;;;;;76.00;30.90;;;;;;;-6.77;62.47;103267.83;107573;1254;111544;-62
2023/02/10 08:17:33;;;;;;;63.00;30.20;;;;;;;-6.61;62.31;103260.37;107576;1252;110089;-61
2023/02/10 08:20:02;;;;;;;78.00;32.60;;;;;;;-6.49;61.78;103259.05;107565;1254;107811;-62
2023/02/10 08:22:31;;;;;;;85.00;36.00;;;;;;;-6.35;61.77;103259.89;107479;1253;97841;-63
2023/02/10 08:24:59;;;;;;;75.80;34.50;;;;;;;-6.13;62.00;103258.78;107607;1252;97710;-62
2023/02/10 08:27:28;;;;;;;80.00;36.90;;;;;;;-5.91;61.92;103249.41;107599;1254;111832;-60
2023/02/10 08:29:57;;;;;;;81.90;36.40;;;;;;;-5.72;61.61;103248.04;107550;1254;110180;-63
2023/02/10 08:32:25;;;;;;;75.90;34.50;;;;;;;-5.52;61.70;103250.34;107551;1253;107286;-60
2023/02/10 08:34:54;;;;;;;80.20;34.60;;;;;;;-5.40;61.01;103244.25;107584;1253;97836;-63
2023/02/10 08:37:22;;;;;;;73.20;33.50;;;;;;;-5.27;60.83;103240.13;107522;1252;98364;-62
2023/02/10 08:39:51;;;;;;;69.00;33.50;;;;;;;-5.08;60.52;103239.19;107578;1254;110026;-62
2023/02/10 08:42:20;;;;;;;76.20;33.90;;;;;;;-4.86;60.58;103240.96;107560;1254;109497;-63
2023/02/10 08:44:48;;;;;;;68.00;32.30;;;;;;;-4.66;60.43;103243.19;107645;1254;108265;-61
2023/02/10 08:47:16;;;;;;;71.20;29.40;;;;;;;-4.40;60.26;103238.83;107551;1256;98002;-61
2023/02/10 08:49:45;;;;;;;67.90;32.10;;;;;;;-4.16;59.89;103234.94;107554;1253;97727;-62
2023/02/10 08:52:14;;;;;;;88.10;38.90;;;;;;;-3.91;59.58;103230.16;107614;1253;111840;-61
2023/02/10 08:54:42;;;;;;;72.40;31.30;;;;;;;-3.70;58.57;103233.38;107575;1254;110351;-62
2023/02/10 08:57:11;;;;;;;61.10;29.00;;;;;;;-3.53;58.15;103231.77;107532;1254;107683;-62
2023/02/10 08:59:39;;;;;;;70.60;30.40;;;;;;;-3.33;57.96;103231.64;107515;1256;97955;-60
2023/02/10 09:02:11;;;;;;;61.20;27.80;;;;;;;-3.05;57.84;103228.34;107612;1252;98391;-62
2023/02/10 09:04:41;;;;;;;57.50;27.00;;;;;;;-2.89;56.29;103226.37;107655;1253;112326;-61
2023/02/10 09:07:11;;;;;;;60.70;27.50;;;;;;;-2.73;56.17;103232.44;107674;1254;110163;-63
2023/02/10 09:09:41;;;;;;;77.00;29.80;;;;;;;-2.53;55.94;103237.84;107586;1253;106846;-62
2023/02/10 09:12:11;;;;;;;56.80;27.00;;;;;;;-2.27;55.82;103239.39;107558;1252;98007;-61
2023/02/10 09:14:39;;;;;;;55.80;26.50;;;;;;;-1.96;55.21;103230.39;107623;1254;98387;-61
2023/02/10 09:17:08;;;;;;;56.00;26.80;;;;;;;-1.56;54.44;103226.08;107588;1254;111985;-61
2023/02/10 09:19:37;;;;;;;58.50;26.10;;;;;;;-0.89;53.96;103229.10;107556;1254;109230;-63
2023/02/10 09:22:06;;;;;;;60.30;26.60;;;;;;;0.18;52.80;103225.94;107577;1252;108675;-61
2023/02/10 09:24:34;;;;;;;53.80;25.10;;;;;;;1.09;51.02;103222.29;107587;1253;97791;-62
2023/02/10 09:27:03;;;;;;;57.10;28.30;;;;;;;1.87;49.98;103214.00;107580;1256;98363;-61
2023/02/10 09:29:31;;;;;;;55.30;28.60;;;;;;;2.77;49.35;103204.90;107576;1254;110947;-64
2023/02/10 09:32:00;;;;;;;58.30;29.30;;;;;;;3.44;47.05;103200.52;107586;1253;108747;-65
2023/02/10 09:34:30;;;;;;;50.90;28.00;;;;;;;4.07;46.61;103198.52;107543;1254;108226;-62
2023/02/10 09:37:00;;;;;;;52.80;28.80;;;;;;;4.74;45.67;103195.89;107532;1253;97815;-62
2023/02/10 09:39:29;;;;;;;60.40;28.90;;;;;;;5.38;44.40;103190.29;107598;1256;97938;-62
2023/02/10 09:42:31;;;;;;;52.00;29.30;;;;;;;6.01;43.39;103180.10;107586;1254;111395;-62
2023/02/10 09:45:09;;;;;;;54.90;31.70;;;;;;;6.43;41.42;103167.24;107649;1256;109691;-65
2023/02/10 09:47:41;;;;;;;60.80;33.80;;;;;;;6.83;39.68;103167.50;107632;1253;107763;-63
2023/02/10 09:50:28;;;;;;;63.10;35.00;;;;;;;7.21;38.05;103165.48;107571;1254;97836;-63
2023/02/10 09:53:12;;;;;;;64.40;34.80;;;;;;;7.35;38.63;103159.98;107598;1256;98452;-64
2023/02/10 09:56:11;;;;;;;62.70;35.00;;;;;;;8.03;39.53;103156.17;107473;1253;114056;-63
2023/02/10 09:58:46;;;;;;;73.20;36.20;;;;;;;8.43;36.75;103149.56;107668;1254;108819;-62
2023/02/10 10:01:29;;;;;;;71.50;36.60;;;;;;;8.65;34.73;103144.74;107511;1252;107684;-61
2023/02/10 10:04:09;;;;;;;71.30;36.40;;;;;;;8.68;34.67;103146.58;107560;1254;97843;-63
2023/02/10 10:06:40;;;;;;;69.30;35.30;;;;;;;8.91;35.08;103146.64;107604;1254;98489;-63
2023/02/10 10:09:09;;;;;;;61.80;35.40;;;;;;;9.28;35.66;103141.45;107648;1254;111290;-62
2023/02/10 10:11:51;;;;;;;70.70;37.10;;;;;;;9.78;36.01;103133.06;107590;1256;110433;-62
2023/02/10 10:14:21;;;;;;;81.70;37.20;;;;;;;10.11;34.29;103132.38;107618;1253;107689;-63
2023/02/10 10:16:59;;;;;;;79.80;46.90;;;;;;;10.61;34.35;103129.42;107604;1254;97860;-62
2023/02/10 10:19:58;;;;;;;67.10;36.40;;;;;;;11.03;32.74;103132.26;107666;1251;97797;-62
2023/02/10 10:22:42;;;;;;;66.70;37.10;;;;;;;11.11;31.20;103127.54;107574;1256;111584;-63
2023/02/10 10:25:41;;;;;;;73.40;36.60;;;;;;;11.05;30.77;103127.50;107551;1254;109539;-62
2023/02/10 10:28:40;;;;;;;68.20;35.00;;;;;;;11.31;31.87;103125.95;107429;1254;107842;-65
2023/02/10 10:31:25;;;;;;;57.40;33.70;;;;;;;11.78;31.58;103124.09;107352;1253;98466;-64
2023/02/10 10:33:59;;;;;;;57.70;33.50;;;;;;;12.14;30.40;103126.62;107377;1254;97743;-62
2023/02/10 10:36:31;;;;;;;56.20;33.20;;;;;;;12.38;29.67;103122.17;107400;1252;111862;-62
2023/02/10 10:39:19;;;;;;;57.00;33.10;;;;;;;12.54;28.80;103123.20;107462;1254;109063;-63
2023/02/10 10:41:49;;;;;;;61.30;32.10;;;;;;;12.39;28.82;103120.61;107438;1254;108077;-64
2023/02/10 10:44:19;;;;;;;61.80;33.40;;;;;;;12.82;28.58;103113.58;107441;1254;97828;-65
2023/02/10 10:46:55;;;;;;;62.60;32.00;;;;;;;13.04;28.63;103110.27;106709;1255;1047068;-63
2023/02/10 10:49:23;;;;;;;56.40;32.20;;;;;;;13.25;27.91;103100.15;107639;1254;111845;-63
2023/02/10 10:51:52;;;;;;;58.20;33.60;;;;;;;13.30;28.81;103091.39;107628;1252;108957;-62
2023/02/10 10:54:22;;;;;;;57.10;32.20;;;;;;;13.75;28.87;103086.70;107561;1253;107896;-62
2023/02/10 10:57:00;;;;;;;53.40;32.90;;;;;;;13.89;27.54;103081.26;107456;1253;97854;-62
2023/02/10 10:59:43;;;;;;;62.40;34.80;;;;;;;13.72;27.50;103080.59;107663;1255;97784;-64
2023/02/10 11:02:17;;;;;;;57.10;31.50;;;;;;;13.65;26.56;103081.60;107599;1254;111086;-64
2023/02/10 11:04:46;;;;;;;51.00;30.90;;;;;;;13.25;26.67;103078.89;107610;1254;109683;-64
2023/02/10 11:07:21;;;;;;;50.60;29.90;;;;;;;13.11;27.84;103074.70;107689;1253;107797;-63
2023/02/10 11:09:53;;;;;;;63.30;32.80;;;;;;;13.44;26.08;103075.76;107627;1253;98470;-63
2023/02/10 11:12:33;;;;;;;59.20;32.70;;;;;;;13.23;26.44;103068.35;107625;1253;97686;-64